< < Back
Terminal Aerodrome Forecast


Current Version              Previous Versions:   1  2  3  4  5  6  7  8  9  

Terminal Aerodrome Forecast

421
FTUS42 KGSP 152100 AAB
TAFCLT
TAF AMD
KCLT 152100Z 1521/1618 32012G22KT P6SM BKN015 OVC025
     FM152200 33016G28KT P6SM SCT040
     FM160200 01008KT P6SM SKC
     FM161200 04012KT P6SM SKC=

Latest METAR

843
SAUS70 KWBC 161000 RRH
MTRCLT
METAR KCLT 160952Z 02009KT 10SM CLR 01/M05 A3023 RMK AO2 SLP239
T00111050


USA.gov is the U.S. government's official web portal to all federal, state and local government web resources and services.